createdAt,value
2019-05-26T00:01:44.985Z,88.60
2019-05-26T00:04:15.810Z,89.20
2019-05-26T00:06:46.575Z,89.20
2019-05-26T00:09:17.384Z,89.20
2019-05-26T00:11:48.098Z,90.30
2019-05-26T00:14:18.835Z,89.50
2019-05-26T00:16:49.610Z,89.10
2019-05-26T00:19:20.427Z,88.70
2019-05-26T00:21:51.123Z,89.20
2019-05-26T00:24:21.903Z,89.80
2019-05-26T00:26:52.697Z,90.30
2019-05-26T00:29:23.474Z,90.90
2019-05-26T00:31:54.280Z,90.10
2019-05-26T00:34:25.046Z,90.50
2019-05-26T00:36:55.828Z,90.50
2019-05-26T00:39:26.598Z,90.80
2019-05-26T00:41:57.385Z,91.20
2019-05-26T00:44:28.131Z,91.20
2019-05-26T00:46:58.906Z,91.60
2019-05-26T00:49:29.574Z,92.00
2019-05-26T00:52:00.418Z,93.20
2019-05-26T00:54:31.097Z,92.70
2019-05-26T00:57:02.015Z,92.90
2019-05-26T00:59:32.730Z,93.10
2019-05-26T01:02:03.666Z,92.30
2019-05-26T01:04:34.413Z,92.80
2019-05-26T01:07:05.209Z,93.50
2019-05-26T01:09:35.877Z,93.90
2019-05-26T01:12:06.643Z,94.70
2019-05-26T01:14:37.476Z,94.60
2019-05-26T01:17:08.195Z,93.90
2019-05-26T01:19:38.902Z,93.90
2019-05-26T01:22:09.718Z,93.70
2019-05-26T01:24:40.505Z,94.00
2019-05-26T01:27:11.302Z,93.30
2019-05-26T01:29:42.078Z,94.80
2019-05-26T01:32:12.904Z,94.90
2019-05-26T01:34:43.681Z,93.90
2019-05-26T01:37:14.587Z,94.10
2019-05-26T01:39:45.364Z,94.40
2019-05-26T01:42:16.121Z,94.00
2019-05-26T01:44:46.866Z,94.50
2019-05-26T01:47:17.643Z,94.40
2019-05-26T01:49:48.450Z,94.60
2019-05-26T01:52:19.268Z,94.90
2019-05-26T01:54:50.044Z,94.90
2019-05-26T01:57:20.911Z,94.40
2019-05-26T01:59:51.578Z,94.30
2019-05-26T02:02:22.372Z,94.70
2019-05-26T02:04:53.099Z,95.20
2019-05-26T02:07:23.915Z,95.30
2019-05-26T02:09:54.652Z,95.30
2019-05-26T02:12:25.448Z,96.20
2019-05-26T02:14:56.233Z,97.30
2019-05-26T02:17:27.016Z,98.20
2019-05-26T02:19:57.757Z,97.00
2019-05-26T02:22:28.994Z,96.90
2019-05-26T02:24:59.739Z,96.60
2019-05-26T02:27:30.507Z,96.60
2019-05-26T02:30:01.283Z,96.40
2019-05-26T02:32:32.080Z,96.90
2019-05-26T02:35:02.936Z,97.20
2019-05-26T02:37:33.693Z,96.60
2019-05-26T02:40:05.361Z,97.30
2019-05-26T02:42:36.106Z,98.10
2019-05-26T02:45:07.803Z,97.20
2019-05-26T02:47:38.546Z,98.10
2019-05-26T02:50:09.756Z,97.20
2019-05-26T02:52:40.475Z,97.10
2019-05-26T02:55:11.801Z,97.20
2019-05-26T02:57:42.578Z,99.00
2019-05-26T03:00:14.023Z,99.90
2019-05-26T03:02:45.289Z,99.90
2019-05-26T03:05:16.325Z,99.90
2019-05-26T03:07:47.371Z,99.90
2019-05-26T03:10:18.268Z,99.90
2019-05-26T03:12:50.732Z,99.90
2019-05-26T03:15:21.503Z,99.90
2019-05-26T03:17:54.413Z,99.90
2019-05-26T03:20:25.178Z,99.90
2019-05-26T03:22:57.910Z,99.90
2019-05-26T03:25:30.885Z,99.90
2019-05-26T03:28:01.594Z,99.90
2019-05-26T03:30:32.425Z,99.80
2019-05-26T03:33:03.147Z,99.50
2019-05-26T03:35:33.904Z,99.30
2019-05-26T03:38:04.648Z,99.90
2019-05-26T03:40:35.385Z,99.90
2019-05-26T03:43:06.119Z,99.90
2019-05-26T03:46:16.685Z,99.90
2019-05-26T03:48:47.395Z,99.90
2019-05-26T03:51:18.157Z,99.90
2019-05-26T03:53:48.840Z,99.90
2019-05-26T03:56:19.631Z,99.90
2019-05-26T03:58:50.407Z,99.90
2019-05-26T04:01:21.148Z,99.90
2019-05-26T04:03:51.891Z,99.90
2019-05-26T04:06:22.730Z,99.90
2019-05-26T04:08:53.497Z,99.90
2019-05-26T04:11:24.306Z,99.90
2019-05-26T04:13:55.030Z,99.90
2019-05-26T04:16:25.807Z,99.90
2019-05-26T04:18:56.562Z,99.90
2019-05-26T04:21:27.349Z,99.90
2019-05-26T04:23:58.084Z,99.90
2019-05-26T04:26:28.882Z,99.90
2019-05-26T04:28:59.661Z,99.90
2019-05-26T04:31:30.465Z,99.80
2019-05-26T04:34:01.210Z,99.20
2019-05-26T04:36:31.999Z,99.40
2019-05-26T04:39:02.838Z,99.20
2019-05-26T04:41:33.630Z,98.90
2019-05-26T04:44:04.509Z,98.90
2019-05-26T04:46:35.282Z,98.70
2019-05-26T04:49:06.056Z,99.10
2019-05-26T04:51:36.786Z,99.20
2019-05-26T04:54:07.545Z,99.60
2019-05-26T04:56:38.368Z,99.90
2019-05-26T04:59:09.132Z,99.70
2019-05-26T05:01:39.882Z,98.50
2019-05-26T05:04:10.628Z,98.20
2019-05-26T05:06:44.536Z,98.30
2019-05-26T05:09:15.292Z,98.40
2019-05-26T05:11:46.057Z,98.80
2019-05-26T05:14:16.856Z,98.90
2019-05-26T05:16:47.641Z,98.20
2019-05-26T05:19:18.467Z,98.30
2019-05-26T05:21:49.214Z,97.90
2019-05-26T05:24:20.021Z,97.40
2019-05-26T05:26:50.746Z,97.30
2019-05-26T05:29:21.515Z,96.10
2019-05-26T05:31:52.240Z,95.90
2019-05-26T05:34:23.028Z,96.20
2019-05-26T05:36:53.802Z,96.30
2019-05-26T05:39:24.609Z,95.70
2019-05-26T05:41:55.347Z,92.80
2019-05-26T05:44:26.253Z,90.70
2019-05-26T05:46:56.982Z,88.80
2019-05-26T05:49:27.766Z,86.80
2019-05-26T05:51:58.717Z,85.30
2019-05-26T05:54:29.528Z,85.10
2019-05-26T05:57:00.302Z,84.90
2019-05-26T05:59:31.073Z,84.40
2019-05-26T06:02:01.911Z,84.50
2019-05-26T06:04:32.675Z,84.50
2019-05-26T06:07:03.450Z,85.10
2019-05-26T06:09:34.227Z,84.20
2019-05-26T06:12:05.005Z,83.40
2019-05-26T06:14:35.791Z,81.60
2019-05-26T06:17:10.313Z,82.20
2019-05-26T06:19:38.923Z,82.70
2019-05-26T06:22:09.674Z,82.40
2019-05-26T06:24:40.496Z,83.50
2019-05-26T06:27:11.245Z,83.90
2019-05-26T06:29:57.615Z,83.80
2019-05-26T06:32:14.784Z,83.20
2019-05-26T06:34:45.894Z,80.90
2019-05-26T06:37:16.683Z,82.70
2019-05-26T06:39:47.426Z,82.20
2019-05-26T06:42:18.212Z,83.40
2019-05-26T06:44:53.717Z,80.80
2019-05-26T06:47:21.378Z,80.00
2019-05-26T06:49:52.134Z,80.70
2019-05-26T06:52:22.891Z,80.10
2019-05-26T06:54:53.666Z,78.90
2019-05-26T06:57:24.454Z,76.30
2019-05-26T06:59:55.219Z,76.60
2019-05-26T07:02:26.026Z,77.00
2019-05-26T07:04:56.782Z,76.80
2019-05-26T07:07:27.618Z,77.00
2019-05-26T07:09:58.377Z,77.20
2019-05-26T07:12:29.215Z,74.70
2019-05-26T07:14:59.979Z,72.20
2019-05-26T07:17:30.804Z,76.10
2019-05-26T07:20:01.512Z,75.00
2019-05-26T07:22:32.617Z,72.40
2019-05-26T07:25:03.395Z,73.00
2019-05-26T07:27:34.200Z,72.80
2019-05-26T07:30:05.657Z,73.20
2019-05-26T07:32:36.483Z,70.50
2019-05-26T07:35:07.725Z,66.30
2019-05-26T07:37:38.517Z,63.10
2019-05-26T07:40:09.384Z,63.40
2019-05-26T07:42:40.198Z,64.90
2019-05-26T07:45:11.795Z,60.90
2019-05-26T07:47:42.561Z,61.50
2019-05-26T07:50:13.338Z,62.80
2019-05-26T07:52:44.127Z,61.70
2019-05-26T07:55:15.042Z,62.50
2019-05-26T07:57:45.808Z,62.60
2019-05-26T08:00:16.747Z,64.70
2019-05-26T08:02:47.823Z,62.60
2019-05-26T08:05:18.597Z,62.70
2019-05-26T08:07:49.357Z,60.60
2019-05-26T08:10:20.129Z,59.50
2019-05-26T08:12:50.908Z,61.30
2019-05-26T08:15:21.643Z,59.60
2019-05-26T08:17:52.501Z,60.30
2019-05-26T08:20:23.247Z,58.60
2019-05-26T08:22:54.002Z,57.50
2019-05-26T08:25:24.699Z,60.50
2019-05-26T08:27:55.465Z,61.30
2019-05-26T08:30:26.293Z,60.60
2019-05-26T08:32:57.114Z,56.00
2019-05-26T08:35:27.856Z,55.10
2019-05-26T08:37:58.632Z,56.90
2019-05-26T08:40:29.434Z,54.20
2019-05-26T08:43:00.214Z,60.00
2019-05-26T08:45:30.994Z,54.70
2019-05-26T08:48:01.786Z,56.80
2019-05-26T08:50:34.369Z,58.30
2019-05-26T08:53:04.929Z,56.60
2019-05-26T08:55:35.666Z,56.30
2019-05-26T08:58:06.502Z,56.10
2019-05-26T09:00:37.300Z,56.70
2019-05-26T09:03:08.069Z,57.50
2019-05-26T09:05:38.932Z,57.10
2019-05-26T09:08:09.749Z,54.00
2019-05-26T09:10:40.606Z,55.50
2019-05-26T09:13:11.353Z,54.20
2019-05-26T09:15:42.977Z,52.80
2019-05-26T09:18:13.733Z,56.90
2019-05-26T09:20:44.535Z,52.30
2019-05-26T09:23:15.357Z,57.30
2019-05-26T09:25:46.739Z,53.50
2019-05-26T09:28:17.549Z,53.60
2019-05-26T09:30:48.289Z,52.60
2019-05-26T09:33:19.065Z,52.00
2019-05-26T09:35:49.882Z,53.90
2019-05-26T09:38:20.676Z,55.00
2019-05-26T09:40:51.442Z,50.30
2019-05-26T09:43:22.199Z,51.90
2019-05-26T09:45:52.965Z,49.90
2019-05-26T09:48:23.735Z,47.80
2019-05-26T09:50:54.602Z,50.00
2019-05-26T09:53:25.388Z,50.70
2019-05-26T09:55:56.221Z,48.30
2019-05-26T09:58:26.938Z,50.70
2019-05-26T10:00:57.735Z,50.60
2019-05-26T10:03:28.560Z,51.00
2019-05-26T10:05:59.697Z,50.10
2019-05-26T10:08:30.472Z,51.70
2019-05-26T10:11:01.269Z,48.60
2019-05-26T10:13:32.341Z,47.80
2019-05-26T10:16:03.193Z,47.90
2019-05-26T10:18:34.000Z,50.50
2019-05-26T10:21:04.785Z,50.60
2019-05-26T10:23:35.542Z,49.40
2019-05-26T10:26:06.339Z,50.10
2019-05-26T10:28:37.074Z,48.80
2019-05-26T10:31:07.919Z,48.00
2019-05-26T10:33:38.679Z,46.10
2019-05-26T10:36:09.518Z,47.90
2019-05-26T10:38:40.270Z,44.50
2019-05-26T10:41:11.095Z,45.90
2019-05-26T10:43:47.246Z,48.20
2019-05-26T10:46:14.250Z,46.10
2019-05-26T10:48:45.028Z,46.40
2019-05-26T10:51:15.883Z,46.40
2019-05-26T10:53:46.766Z,49.40
2019-05-26T10:56:17.585Z,47.20
2019-05-26T10:58:48.402Z,47.10
2019-05-26T11:01:19.199Z,47.60
2019-05-26T11:03:49.916Z,49.40
2019-05-26T11:06:20.653Z,45.20
2019-05-26T11:08:51.447Z,40.10
2019-05-26T11:11:22.260Z,45.10
2019-05-26T11:14:02.266Z,42.70
2019-05-26T11:16:25.447Z,42.20
2019-05-26T11:18:56.354Z,43.00
2019-05-26T11:21:27.151Z,44.80
2019-05-26T11:23:57.929Z,42.00
2019-05-26T11:26:28.753Z,37.50
2019-05-26T11:28:59.501Z,37.90
2019-05-26T11:31:30.291Z,41.40
2019-05-26T11:34:01.092Z,43.30
2019-05-26T11:36:31.908Z,39.90
2019-05-26T11:39:02.696Z,42.40
2019-05-26T11:41:33.512Z,41.20
2019-05-26T11:44:16.981Z,39.70
2019-05-26T11:46:36.716Z,39.40
2019-05-26T11:49:07.443Z,39.20
2019-05-26T11:51:38.198Z,37.00
2019-05-26T11:54:08.935Z,39.10
2019-05-26T11:56:39.684Z,40.40
2019-05-26T11:59:10.446Z,40.10
2019-05-26T12:01:41.155Z,38.60
2019-05-26T12:04:11.925Z,40.20
2019-05-26T12:06:42.947Z,35.70
2019-05-26T12:09:15.577Z,35.00
2019-05-26T12:11:46.316Z,35.10
2019-05-26T12:14:31.532Z,36.70
2019-05-26T12:16:49.767Z,37.90
2019-05-26T12:19:20.644Z,40.10
2019-05-26T12:21:51.325Z,39.10
2019-05-26T12:24:22.102Z,40.30
2019-05-26T12:26:52.829Z,39.70
2019-05-26T12:29:23.586Z,41.70
2019-05-26T12:31:54.364Z,38.00
2019-05-26T12:34:25.033Z,39.80
2019-05-26T12:36:55.807Z,40.90
2019-05-26T12:39:28.514Z,38.10
2019-05-26T12:41:59.259Z,36.20
2019-05-26T12:44:30.056Z,38.80
2019-05-26T12:47:00.751Z,40.40
2019-05-26T12:49:31.510Z,38.90
2019-05-26T12:52:02.236Z,40.50
2019-05-26T12:54:32.994Z,42.00
2019-05-26T12:57:03.755Z,38.20
2019-05-26T12:59:34.575Z,39.80
2019-05-26T13:02:05.540Z,39.80
2019-05-26T13:04:36.257Z,38.10
2019-05-26T13:07:07.024Z,39.20
2019-05-26T13:09:37.790Z,40.50
2019-05-26T13:12:08.569Z,38.90
2019-05-26T13:14:39.312Z,40.90
2019-05-26T13:17:10.052Z,41.30
2019-05-26T13:19:40.916Z,39.00
2019-05-26T13:22:11.764Z,38.50
2019-05-26T13:24:42.568Z,37.70
2019-05-26T13:27:13.275Z,36.10
2019-05-26T13:29:45.008Z,37.20
2019-05-26T13:32:19.732Z,39.70
2019-05-26T13:34:50.546Z,39.30
2019-05-26T13:37:21.323Z,34.80
2019-05-26T13:39:52.938Z,39.60
2019-05-26T13:42:23.836Z,37.90
2019-05-26T13:44:54.603Z,38.10
2019-05-26T13:47:26.588Z,35.60
2019-05-26T13:49:57.427Z,38.50
2019-05-26T13:52:28.291Z,36.20
2019-05-26T13:54:59.167Z,37.60
2019-05-26T13:57:29.962Z,35.60
2019-05-26T14:00:00.740Z,34.70
2019-05-26T14:02:31.481Z,34.80
2019-05-26T14:05:02.237Z,35.60
2019-05-26T14:07:33.150Z,36.90
2019-05-26T14:10:04.789Z,36.80
2019-05-26T14:12:35.684Z,34.50
2019-05-26T14:15:07.064Z,36.60
2019-05-26T14:17:40.197Z,38.50
2019-05-26T14:20:12.662Z,38.80
2019-05-26T14:22:43.480Z,39.10
2019-05-26T14:25:15.722Z,38.00
2019-05-26T14:27:46.720Z,33.80
2019-05-26T14:30:17.480Z,32.90
2019-05-26T14:32:48.296Z,33.70
2019-05-26T14:35:19.064Z,35.40
2019-05-26T14:37:50.002Z,35.30
2019-05-26T14:40:20.848Z,37.50
2019-05-26T14:42:51.762Z,38.20
2019-05-26T14:45:22.619Z,39.00
2019-05-26T14:47:53.516Z,37.30
2019-05-26T14:50:24.523Z,34.60
2019-05-26T14:52:55.559Z,35.60
2019-05-26T14:55:26.351Z,33.60
2019-05-26T14:57:57.127Z,36.10
2019-05-26T15:00:28.198Z,39.70
2019-05-26T15:02:59.074Z,39.40
2019-05-26T15:05:29.826Z,39.40
2019-05-26T15:08:00.597Z,39.30
2019-05-26T15:10:31.355Z,42.00
2019-05-26T15:13:02.180Z,38.20
2019-05-26T15:15:34.965Z,38.60
2019-05-26T15:18:05.345Z,41.20
2019-05-26T15:20:36.062Z,40.70
2019-05-26T15:23:06.778Z,42.00
2019-05-26T15:25:37.553Z,43.60
2019-05-26T15:28:08.300Z,42.30
2019-05-26T15:30:39.067Z,43.00
2019-05-26T15:33:09.903Z,41.50
2019-05-26T15:35:40.692Z,43.40
2019-05-26T15:38:11.505Z,44.30
2019-05-26T15:40:42.322Z,44.40
2019-05-26T15:43:13.060Z,45.20
2019-05-26T15:45:43.855Z,46.20
2019-05-26T15:48:14.643Z,46.40
2019-05-26T15:50:45.388Z,46.10
2019-05-26T15:53:16.126Z,45.70
2019-05-26T15:55:46.902Z,43.80
2019-05-26T15:58:17.631Z,45.40
2019-05-26T16:00:48.504Z,46.30
2019-05-26T16:03:19.292Z,47.40
2019-05-26T16:05:50.088Z,47.90
2019-05-26T16:08:20.884Z,45.00
2019-05-26T16:10:51.693Z,44.70
2019-05-26T16:13:22.426Z,45.60
2019-05-26T16:15:53.394Z,46.70
2019-05-26T16:18:24.129Z,46.20
2019-05-26T16:21:03.134Z,47.00
2019-05-26T16:23:27.323Z,46.90
2019-05-26T16:25:58.129Z,47.40
2019-05-26T16:28:28.907Z,46.50
2019-05-26T16:30:59.713Z,49.40
2019-05-26T16:33:30.582Z,48.10
2019-05-26T16:36:01.349Z,47.90
2019-05-26T16:38:32.139Z,47.90
2019-05-26T16:41:02.939Z,48.80
2019-05-26T16:43:33.712Z,50.20
2019-05-26T16:46:04.587Z,49.80
2019-05-26T16:48:35.368Z,48.90
2019-05-26T16:51:06.217Z,49.60
2019-05-26T16:53:36.966Z,50.80
2019-05-26T16:56:07.731Z,51.20
2019-05-26T16:58:38.505Z,51.40
2019-05-26T17:01:09.385Z,49.30
2019-05-26T17:03:40.090Z,51.30
2019-05-26T17:06:10.884Z,51.90
2019-05-26T17:08:41.641Z,51.80
2019-05-26T17:11:12.437Z,53.30
2019-05-26T17:13:43.247Z,53.60
2019-05-26T17:16:14.080Z,53.30
2019-05-26T17:18:44.898Z,53.90
2019-05-26T17:21:15.686Z,52.90
2019-05-26T17:23:46.460Z,52.70
2019-05-26T17:26:17.229Z,52.50
2019-05-26T17:28:48.014Z,53.40
2019-05-26T17:31:18.801Z,53.10
2019-05-26T17:33:49.599Z,53.00
2019-05-26T17:36:20.472Z,53.80
2019-05-26T17:38:51.233Z,53.90
2019-05-26T17:41:22.017Z,55.00
2019-05-26T17:43:52.765Z,55.00
2019-05-26T17:46:23.559Z,54.70
2019-05-26T17:48:54.304Z,55.70
2019-05-26T17:51:25.103Z,56.50
2019-05-26T17:54:14.924Z,55.60
2019-05-26T17:56:45.718Z,56.10
2019-05-26T17:59:16.516Z,56.70
2019-05-26T18:01:47.283Z,56.10
2019-05-26T18:04:18.019Z,56.50
2019-05-26T18:06:48.856Z,57.70
2019-05-26T18:09:19.632Z,57.50
2019-05-26T18:11:50.449Z,56.70
2019-05-26T18:14:21.185Z,56.90
2019-05-26T18:16:51.963Z,58.10
2019-05-26T18:19:22.740Z,57.90
2019-05-26T18:21:53.593Z,58.00
2019-05-26T18:24:24.321Z,59.00
2019-05-26T18:26:55.107Z,58.20
2019-05-26T18:29:25.888Z,59.10
2019-05-26T18:31:56.873Z,59.50
2019-05-26T18:34:27.627Z,59.30
2019-05-26T18:36:58.393Z,59.30
2019-05-26T18:39:29.179Z,60.40
2019-05-26T18:42:00.016Z,60.50
2019-05-26T18:44:30.874Z,60.40
2019-05-26T18:47:01.630Z,60.70
2019-05-26T18:49:32.392Z,61.60
2019-05-26T18:52:03.205Z,61.50
2019-05-26T18:54:33.986Z,62.30
2019-05-26T18:57:04.744Z,62.50
2019-05-26T18:59:35.571Z,62.60
2019-05-26T19:02:06.318Z,63.10
2019-05-26T19:04:37.155Z,63.10
2019-05-26T19:07:07.937Z,64.00
2019-05-26T19:09:38.697Z,64.50
2019-05-26T19:12:09.443Z,63.70
2019-05-26T19:14:40.270Z,64.20
2019-05-26T19:17:11.026Z,64.50
2019-05-26T19:19:41.815Z,64.40
2019-05-26T19:22:12.589Z,65.00
2019-05-26T19:24:43.386Z,64.70
2019-05-26T19:27:14.112Z,65.50
2019-05-26T19:29:44.930Z,64.70
2019-05-26T19:32:15.715Z,64.50
2019-05-26T19:34:46.531Z,64.70
2019-05-26T19:37:17.366Z,64.60
2019-05-26T19:39:48.146Z,64.20
2019-05-26T19:42:19.022Z,64.70
2019-05-26T19:44:49.817Z,64.80
2019-05-26T19:47:20.614Z,64.90
2019-05-26T19:49:51.370Z,65.00
2019-05-26T19:52:22.181Z,65.40
2019-05-26T19:54:53.014Z,65.30
2019-05-26T19:57:23.739Z,65.20
2019-05-26T19:59:54.556Z,65.60
2019-05-26T20:02:25.302Z,64.40
2019-05-26T20:04:56.109Z,64.90
2019-05-26T20:07:26.906Z,64.30
2019-05-26T20:09:57.651Z,64.80
2019-05-26T20:12:28.418Z,64.80
2019-05-26T20:14:59.255Z,64.90
2019-05-26T20:17:30.002Z,65.20
2019-05-26T20:20:00.819Z,65.70
2019-05-26T20:22:34.005Z,65.70
2019-05-26T20:25:03.903Z,66.30
2019-05-26T20:27:34.688Z,65.50
2019-05-26T20:30:05.948Z,64.80
2019-05-26T20:32:36.699Z,65.10
2019-05-26T20:35:07.661Z,65.70
2019-05-26T20:37:38.383Z,65.80
2019-05-26T20:40:09.714Z,66.30
2019-05-26T20:42:40.520Z,65.60
2019-05-26T20:45:11.723Z,65.40
2019-05-26T20:47:42.510Z,65.40
2019-05-26T20:50:28.098Z,65.40
2019-05-26T20:52:47.039Z,65.00
2019-05-26T20:55:18.250Z,65.10
2019-05-26T20:57:49.284Z,65.30
2019-05-26T21:00:20.165Z,65.20
2019-05-26T21:02:50.908Z,65.90
2019-05-26T21:05:21.658Z,65.90
2019-05-26T21:07:52.551Z,66.60
2019-05-26T21:10:23.340Z,66.10
2019-05-26T21:12:54.085Z,66.80
2019-05-26T21:15:24.811Z,67.00
2019-05-26T21:17:55.618Z,67.60
2019-05-26T21:20:26.345Z,67.30
2019-05-26T21:22:57.160Z,66.40
2019-05-26T21:25:27.969Z,66.50
2019-05-26T21:27:58.813Z,67.00
2019-05-26T21:30:29.550Z,66.10
2019-05-26T21:33:00.336Z,66.60
2019-05-26T21:35:31.114Z,66.10
2019-05-26T21:38:01.891Z,66.30
2019-05-26T21:40:32.645Z,66.10
2019-05-26T21:43:03.435Z,65.90
2019-05-26T21:45:34.219Z,66.40
2019-05-26T21:48:05.216Z,66.80
2019-05-26T21:50:35.973Z,66.30
2019-05-26T21:53:06.768Z,66.50
2019-05-26T21:55:37.464Z,66.40
2019-05-26T21:58:08.252Z,67.20
2019-05-26T22:00:45.689Z,66.80
2019-05-26T22:03:16.446Z,67.10
2019-05-26T22:05:47.280Z,67.60
2019-05-26T22:08:18.025Z,67.40
2019-05-26T22:10:48.725Z,67.40
2019-05-26T22:13:19.541Z,67.20
2019-05-26T22:15:50.299Z,67.50
2019-05-26T22:18:21.034Z,67.50
2019-05-26T22:20:51.720Z,68.30
2019-05-26T22:23:22.448Z,68.30
2019-05-26T22:25:53.213Z,69.00
2019-05-26T22:28:23.970Z,69.20
2019-05-26T22:30:54.747Z,69.10
2019-05-26T22:33:25.530Z,69.10
2019-05-26T22:35:56.289Z,69.80
2019-05-26T22:38:27.220Z,69.40
2019-05-26T22:40:57.934Z,70.20
2019-05-26T22:43:28.693Z,70.10
2019-05-26T22:45:59.469Z,70.10
2019-05-26T22:48:30.224Z,70.40
2019-05-26T22:51:01.010Z,70.60
2019-05-26T22:53:31.745Z,70.80
2019-05-26T22:56:02.483Z,70.60
2019-05-26T22:58:33.129Z,71.10
2019-05-26T23:01:03.929Z,71.70
2019-05-26T23:03:34.651Z,72.00
2019-05-26T23:06:05.642Z,71.90
2019-05-26T23:08:36.583Z,72.50
2019-05-26T23:11:07.342Z,72.70
2019-05-26T23:13:38.109Z,73.30
2019-05-26T23:16:08.914Z,73.40
2019-05-26T23:18:39.667Z,73.60
2019-05-26T23:21:10.407Z,74.10
2019-05-26T23:23:41.185Z,73.70
2019-05-26T23:26:11.970Z,74.50
2019-05-26T23:28:42.738Z,74.80
2019-05-26T23:31:13.554Z,74.70
2019-05-26T23:33:44.350Z,75.10
2019-05-26T23:36:15.207Z,75.40
2019-05-26T23:38:46.113Z,75.70
2019-05-26T23:41:16.891Z,76.40
2019-05-26T23:43:47.687Z,76.50
2019-05-26T23:46:18.494Z,77.00
2019-05-26T23:48:49.281Z,77.30
2019-05-26T23:51:20.090Z,78.00
2019-05-26T23:53:50.897Z,79.10
2019-05-26T23:56:21.639Z,79.10
2019-05-26T23:58:52.409Z,80.10
